Time;durP1;ratioP1;P1;durP2;ratioP2;P2;SDS_P1;SDS_P2;PMS_P1;PMS_P2;Temp;Humidity;BMP_temperature;BMP_pressure;BME280_temperature;BME280_humidity;BME280_pressure;Samples;Min_cycle;Max_cycle;Signal;HPM_P1;HPM_P2
2022/07/20 00:11:35;;;;;;;;;;;;;;;19.80;56.53;100620.91;31304882;28;19920;-69
2022/07/20 00:26:37;;;;;;;;;;;;;;;19.78;56.12;100604.84;31273571;28;19927;-69
2022/07/20 00:41:41;;;;;;;;;;;;;;;19.90;54.73;100587.28;31286756;28;19925;-69
2022/07/20 00:56:43;;;;;;;;;;;;;;;19.95;54.71;100586.66;31283711;28;19929;-69
2022/07/20 01:11:45;;;;;;;;;;;;;;;19.91;54.79;100583.31;31281917;28;19920;-70
2022/07/20 01:26:47;;;;;;;;;;;;;;;19.87;54.69;100571.69;31287519;28;19921;-69
2022/07/20 01:41:52;;;;;;;;;;;;;;;19.85;54.89;100574.16;31302681;28;19947;-70
2022/07/20 01:56:54;;;;;;;;;;;;;;;19.96;55.61;100555.09;31317403;28;19947;-69
2022/07/20 02:11:56;;;;;;;;;;;;;;;19.96;56.25;100563.38;31313127;28;19952;-69
2022/07/20 02:26:58;;;;;;;;;;;;;;;20.03;58.55;100573.28;31320768;28;19927;-69
2022/07/20 02:42:01;;;;;;;;;;;;;;;20.00;60.42;100574.97;31329600;28;19935;-68
2022/07/20 02:57:02;;;;;;;;;;;;;;;19.87;61.72;100566.19;31287922;28;19921;-69
2022/07/20 03:12:04;;;;;;;;;;;;;;;20.22;63.07;100568.38;31323399;28;20385;-69
2022/07/20 03:27:06;;;;;;;;;;;;;;;20.60;63.14;100576.56;31270870;28;19925;-69
2022/07/20 03:42:08;;;;;;;;;;;;;;;20.60;64.26;100576.56;31303970;28;19928;-70
2022/07/20 03:57:10;;;;;;;;;;;;;;;20.62;64.75;100587.91;31288894;28;20329;-70
2022/07/20 04:12:19;;;;;;;;;;;;;;;20.60;63.41;100582.09;31280967;28;20719;-70
2022/07/20 04:27:21;;;;;;;;;;;;;;;20.76;62.28;100581.63;31306133;28;19921;-70
2022/07/20 04:42:45;;;;;;;;;;;;;;;20.99;61.68;100573.72;31292275;28;19925;-72
2022/07/20 04:58:14;;;;;;;;;;;;;;;22.18;58.66;100566.50;31303751;28;20024;-69
2022/07/20 05:13:16;;;;;;;;;;;;;;;23.01;55.50;100566.47;31305677;28;20011;-70
2022/07/20 05:28:20;;;;;;;;;;;;;;;23.84;52.52;100557.09;31305662;28;19920;-70
2022/07/20 05:43:22;;;;;;;;;;;;;;;24.49;47.92;100546.66;31327917;28;19925;-69
2022/07/20 05:58:24;;;;;;;;;;;;;;;25.07;46.39;100533.75;31308386;28;19925;-70
2022/07/20 06:13:26;;;;;;;;;;;;;;;25.86;42.60;100523.13;31307825;28;19921;-68
2022/07/20 06:28:30;;;;;;;;;;;;;;;26.13;40.25;100508.28;31308893;28;19925;-69
2022/07/20 06:43:32;;;;;;;;;;;;;;;26.74;39.60;100490.31;31293337;28;20016;-69
2022/07/20 06:58:34;;;;;;;;;;;;;;;27.05;38.91;100491.03;31306492;28;19967;-70
2022/07/20 07:13:36;;;;;;;;;;;;;;;27.65;37.21;100479.66;31299718;28;20368;-69
2022/07/20 07:28:38;;;;;;;;;;;;;;;28.09;36.51;100467.88;31285757;28;20398;-69
2022/07/20 07:43:40;;;;;;;;;;;;;;;28.41;37.12;100445.53;31294483;28;19943;-69
2022/07/20 07:58:41;;;;;;;;;;;;;;;29.02;35.97;100429.69;31301033;28;20058;-74
2022/07/20 08:14:03;;;;;;;;;;;;;;;28.91;36.39;100421.53;31273935;28;19932;-77
2022/07/20 08:29:05;;;;;;;;;;;;;;;29.60;35.29;100402.78;31273894;28;19921;-72
2022/07/20 08:44:13;;;;;;;;;;;;;;;29.28;35.85;100386.97;31281696;28;19925;-74
2022/07/20 08:59:14;;;;;;;;;;;;;;;29.91;35.64;100354.22;31279764;28;20396;-75
2022/07/20 09:14:49;;;;;;;;;;;;;;;29.59;36.05;100339.75;31280838;28;19928;-69
2022/07/20 09:30:09;;;;;;;;;;;;;;;29.55;35.38;100314.16;31224971;28;20035;-77
2022/07/20 09:45:21;;;;;;;;;;;;;;;30.74;33.63;100292.41;31289299;28;19928;-77
2022/07/20 10:00:42;;;;;;;;;;;;;;;31.90;31.22;100268.84;31273391;28;20110;-75
2022/07/20 10:15:53;;;;;;;;;;;;;;;32.25;30.73;100236.97;31301177;28;20298;-69
2022/07/20 10:30:57;;;;;;;;;;;;;;;31.76;31.30;100226.22;31307711;28;19927;-69
2022/07/20 10:45:59;;;;;;;;;;;;;;;32.36;30.69;100196.50;31301234;28;19939;-68
2022/07/20 11:01:09;;;;;;;;;;;;;;;31.14;33.07;100185.47;31305634;28;19963;-70
2022/07/20 11:16:10;;;;;;;;;;;;;;;31.15;33.43;100165.28;31315088;28;19968;-69
2022/07/20 11:31:13;;;;;;;;;;;;;;;30.37;34.13;100144.53;31276523;28;19940;-74
2022/07/20 11:46:25;;;;;;;;;;;;;;;30.10;34.51;100122.44;31284203;28;19956;-71
2022/07/20 12:01:29;;;;;;;;;;;;;;;29.92;34.25;100106.66;31274725;28;19921;-73
2022/07/20 12:16:44;;;;;;;;;;;;;;;29.63;34.79;100074.44;31268952;28;19928;-71
2022/07/20 12:31:57;;;;;;;;;;;;;;;29.23;35.31;100055.19;31285873;28;19921;-73
2022/07/20 12:46:59;;;;;;;;;;;;;;;29.45;34.91;100037.81;31272541;28;20623;-74
2022/07/20 13:02:01;;;;;;;;;;;;;;;29.12;35.50;100016.34;31276701;28;20018;-79
2022/07/20 13:17:03;;;;;;;;;;;;;;;28.62;37.08;99981.31;31268306;28;19921;-76
2022/07/20 13:32:05;;;;;;;;;;;;;;;28.58;36.03;99953.78;31268498;28;19921;-72
2022/07/20 13:47:07;;;;;;;;;;;;;;;28.61;36.19;99935.16;31279131;28;19982;-68
2022/07/20 14:12:26;;;;;;;;;;;;;;;28.09;36.96;99901.44;31522305;27;19923;-73
2022/07/20 14:27:30;;;;;;;;;;;;;;;28.21;35.88;99890.00;31437802;27;19931;-74
2022/07/20 14:42:33;;;;;;;;;;;;;;;28.09;36.67;99859.59;31150330;28;145565;-76
2022/07/20 15:08:31;;;;;;;3.53;2.42;;;;;;;27.79;39.74;99842.56;527048;27;20399;-39
2022/07/20 15:08:48;;;;;;;4.10;2.88;;;;;;;27.80;44.15;99846.88;523007;28;68177;-41
2022/07/20 15:09:05;;;;;;;4.55;3.15;;;;;;;27.80;40.18;99846.88;497832;28;9430;-46
2022/07/20 15:09:28;;;;;;;3.78;3.33;;;;;;;27.78;39.72;99844.63;495894;28;10530;-36
2022/07/20 15:09:55;;;;;;;3.25;2.38;;;;;;;27.79;39.29;99842.56;526454;27;20380;-41
2022/07/20 15:10:37;;;;;;;3.92;2.85;;;;;;;27.77;39.14;99850.75;492747;27;20410;-34
2022/07/20 15:10:55;;;;;;;4.60;2.85;;;;;;;27.76;39.89;99838.84;471904;28;120600;-35
2022/07/20 15:12:19;;;;;;;5.05;2.47;;;;;;;27.76;39.81;99838.09;2030441;28;20421;-33
2022/07/20 15:27:52;;;;;;;4.97;2.83;;;;;;;27.67;39.42;99813.44;31521060;27;20380;-37
2022/07/20 15:48:47;;;;;;;4.20;2.35;;;;;;;28.26;38.17;99802.59;31277310;27;20439;-78
2022/07/20 16:03:49;;;;;;;4.45;1.42;;;;;;;27.40;38.77;99796.09;31156562;28;20045;-79
2022/07/20 16:18:52;;;;;;;3.10;1.45;;;;;;;26.88;39.00;99788.63;31340661;28;20049;-80
2022/07/20 16:33:54;;;;;;;4.35;1.70;;;;;;;26.61;39.43;99791.44;31348302;28;20056;-77
2022/07/20 16:48:56;;;;;;;2.75;1.42;;;;;;;26.39;40.16;99789.09;31301477;28;20050;-77
2022/07/20 17:04:10;;;;;;;3.50;1.52;;;;;;;26.08;40.54;99791.41;31267218;28;20144;-83
2022/07/20 17:19:24;;;;;;;4.20;1.48;;;;;;;25.74;41.40;99752.34;31264037;28;20144;-79
2022/07/20 17:34:27;;;;;;;2.85;1.42;;;;;;;25.46;41.76;99755.53;31248985;28;20520;-75
2022/07/20 17:49:29;;;;;;;;;;;;;;;25.22;43.04;99733.44;31229120;28;20042;-77
2022/07/20 18:04:31;;;;;;;2.73;1.40;;;;;;;25.00;42.39;99728.97;31231134;28;19925;-79
2022/07/20 18:19:33;;;;;;;3.80;2.67;;;;;;;24.81;42.68;99728.19;31233502;28;20060;-78
2022/07/20 18:34:35;;;;;;;;;;;;;;;24.64;43.41;99722.88;31239823;28;20057;-76
2022/07/20 18:49:40;;;;;;;3.65;2.03;;;;;;;24.44;43.46;99706.75;31229198;28;19925;-76
2022/07/20 19:04:43;;;;;;;6.25;2.95;;;;;;;24.26;43.69;99704.69;31214020;28;20115;-75
2022/07/20 19:19:44;;;;;;;7.47;1.30;;;;;;;23.31;50.80;99853.09;31199202;28;20046;-75
2022/07/20 19:34:47;;;;;;;3.30;0.97;;;;;;;22.10;57.55;99873.06;31229405;28;20523;-77
2022/07/20 19:49:49;;;;;;;4.50;1.03;;;;;;;21.13;64.89;99917.97;31241579;28;20053;-78
2022/07/20 20:04:51;;;;;;;3.13;1.10;;;;;;;19.97;81.64;99936.72;31228018;28;20092;-77
2022/07/20 20:19:53;;;;;;;3.10;1.33;;;;;;;19.07;95.16;99928.69;31231128;28;20048;-78
2022/07/20 20:34:55;;;;;;;3.13;1.20;;;;;;;18.56;100.00;99885.94;31252393;28;20053;-78
2022/07/20 20:49:57;;;;;;;3.40;1.80;;;;;;;18.30;100.00;99852.09;31280948;28;20056;-79
2022/07/20 21:05:00;;;;;;;6.88;3.88;;;;;;;17.89;100.00;99779.81;31261848;28;20058;-78
2022/07/20 21:20:04;;;;;;;3.35;1.90;;;;;;;17.68;100.00;99798.19;31252129;28;20053;-80
2022/07/20 21:35:06;;;;;;;6.13;2.60;;;;;;;17.84;100.00;99816.91;31251997;28;20092;-79
2022/07/20 21:50:08;;;;;;;4.70;2.70;;;;;;;18.19;100.00;99824.47;31240345;28;20054;-78
2022/07/20 22:05:10;;;;;;;8.18;2.03;;;;;;;18.22;100.00;99846.22;31271502;28;20060;-78
2022/07/20 22:20:13;;;;;;;3.42;2.00;;;;;;;18.15;100.00;99823.91;31238925;28;20579;-78
2022/07/20 22:35:15;;;;;;;4.22;2.70;;;;;;;17.99;100.00;99823.13;31235277;28;20049;-77
2022/07/20 22:50:17;;;;;;;6.45;2.58;;;;;;;17.90;100.00;99836.22;31251801;28;20053;-78
2022/07/20 23:05:20;;;;;;;4.28;2.80;;;;;;;17.84;100.00;99849.88;31226719;28;20058;-77
2022/07/20 23:20:23;;;;;;;5.80;2.83;;;;;;;17.81;100.00;99861.78;31247583;28;20795;-78
2022/07/20 23:35:25;;;;;;;4.22;2.60;;;;;;;17.53;100.00;99842.06;31283036;28;20053;-78
2022/07/20 23:50:27;;;;;;;4.95;2.85;;;;;;;17.20;100.00;99847.69;31243722;28;20140;-77
